sensor_id;sensor_type;location;lat;lon;timestamp;P1;durP1;ratioP1;P2;durP2;ratioP2
18883;SDS011;9574;47.282;9.640;2022-09-12T00:00:12;0.80;;;0.80;;
18883;SDS011;9574;47.282;9.640;2022-09-12T00:02:39;0.80;;;0.80;;
18883;SDS011;9574;47.282;9.640;2022-09-12T00:05:06;3.07;;;0.80;;
18883;SDS011;9574;47.282;9.640;2022-09-12T00:07:34;0.60;;;0.60;;
18883;SDS011;9574;47.282;9.640;2022-09-12T00:10:02;0.80;;;0.80;;
18883;SDS011;9574;47.282;9.640;2022-09-12T00:12:30;0.70;;;0.70;;
18883;SDS011;9574;47.282;9.640;2022-09-12T00:14:57;2.13;;;0.90;;
18883;SDS011;9574;47.282;9.640;2022-09-12T00:17:24;1.57;;;0.80;;
18883;SDS011;9574;47.282;9.640;2022-09-12T00:19:51;2.30;;;0.73;;
18883;SDS011;9574;47.282;9.640;2022-09-12T00:22:19;0.70;;;0.70;;
18883;SDS011;9574;47.282;9.640;2022-09-12T00:24:46;0.80;;;0.80;;
18883;SDS011;9574;47.282;9.640;2022-09-12T00:27:14;0.70;;;0.70;;
18883;SDS011;9574;47.282;9.640;2022-09-12T00:29:41;0.90;;;0.77;;
18883;SDS011;9574;47.282;9.640;2022-09-12T00:32:08;0.70;;;0.70;;
18883;SDS011;9574;47.282;9.640;2022-09-12T00:34:35;5.40;;;0.90;;
18883;SDS011;9574;47.282;9.640;2022-09-12T00:37:02;2.27;;;0.80;;
18883;SDS011;9574;47.282;9.640;2022-09-12T00:39:29;3.27;;;0.70;;
18883;SDS011;9574;47.282;9.640;2022-09-12T00:41:56;0.87;;;0.87;;
18883;SDS011;9574;47.282;9.640;2022-09-12T00:47:17;0.67;;;0.67;;
18883;SDS011;9574;47.282;9.640;2022-09-12T00:49:48;0.87;;;0.87;;
18883;SDS011;9574;47.282;9.640;2022-09-12T00:52:21;1.30;;;1.20;;
18883;SDS011;9574;47.282;9.640;2022-09-12T00:54:51;0.70;;;0.70;;
18883;SDS011;9574;47.282;9.640;2022-09-12T00:57:22;0.90;;;0.80;;
18883;SDS011;9574;47.282;9.640;2022-09-12T00:59:56;0.70;;;0.70;;
18883;SDS011;9574;47.282;9.640;2022-09-12T01:02:29;1.27;;;0.90;;
18883;SDS011;9574;47.282;9.640;2022-09-12T01:04:57;1.40;;;0.93;;
18883;SDS011;9574;47.282;9.640;2022-09-12T01:07:24;3.03;;;0.60;;
18883;SDS011;9574;47.282;9.640;2022-09-12T01:09:52;1.00;;;0.70;;
18883;SDS011;9574;47.282;9.640;2022-09-12T01:12:19;1.03;;;0.90;;
18883;SDS011;9574;47.282;9.640;2022-09-12T01:14:46;0.70;;;0.70;;
18883;SDS011;9574;47.282;9.640;2022-09-12T01:17:14;4.07;;;0.90;;
18883;SDS011;9574;47.282;9.640;2022-09-12T01:19:56;0.70;;;0.70;;
18883;SDS011;9574;47.282;9.640;2022-09-12T01:23:05;4.23;;;1.13;;
18883;SDS011;9574;47.282;9.640;2022-09-12T01:25:45;5.20;;;1.27;;
18883;SDS011;9574;47.282;9.640;2022-09-12T01:31:20;2.70;;;0.70;;
18883;SDS011;9574;47.282;9.640;2022-09-12T01:33:56;3.70;;;0.77;;
18883;SDS011;9574;47.282;9.640;2022-09-12T01:36:35;0.70;;;0.70;;
18883;SDS011;9574;47.282;9.640;2022-09-12T01:39:10;0.70;;;0.70;;
18883;SDS011;9574;47.282;9.640;2022-09-12T01:41:46;0.70;;;0.70;;
18883;SDS011;9574;47.282;9.640;2022-09-12T01:44:21;1.60;;;0.70;;
18883;SDS011;9574;47.282;9.640;2022-09-12T01:46:58;0.80;;;0.70;;
18883;SDS011;9574;47.282;9.640;2022-09-12T01:49:35;1.57;;;0.90;;
18883;SDS011;9574;47.282;9.640;2022-09-12T01:52:07;0.60;;;0.60;;
18883;SDS011;9574;47.282;9.640;2022-09-12T01:54:43;0.80;;;0.80;;
18883;SDS011;9574;47.282;9.640;2022-09-12T01:57:15;1.43;;;0.80;;
18883;SDS011;9574;47.282;9.640;2022-09-12T01:59:47;3.80;;;0.80;;
18883;SDS011;9574;47.282;9.640;2022-09-12T02:02:19;0.70;;;0.70;;
18883;SDS011;9574;47.282;9.640;2022-09-12T02:04:51;0.73;;;0.73;;
18883;SDS011;9574;47.282;9.640;2022-09-12T02:07:23;0.70;;;0.70;;
18883;SDS011;9574;47.282;9.640;2022-09-12T02:09:56;0.80;;;0.70;;
18883;SDS011;9574;47.282;9.640;2022-09-12T02:12:30;0.63;;;0.63;;
18883;SDS011;9574;47.282;9.640;2022-09-12T02:15:04;0.93;;;0.60;;
18883;SDS011;9574;47.282;9.640;2022-09-12T02:17:37;0.70;;;0.70;;
18883;SDS011;9574;47.282;9.640;2022-09-12T02:20:08;0.80;;;0.80;;
18883;SDS011;9574;47.282;9.640;2022-09-12T02:22:40;1.47;;;0.90;;
18883;SDS011;9574;47.282;9.640;2022-09-12T02:25:10;0.63;;;0.63;;
18883;SDS011;9574;47.282;9.640;2022-09-12T02:27:42;0.77;;;0.70;;
18883;SDS011;9574;47.282;9.640;2022-09-12T02:30:12;0.97;;;0.80;;
18883;SDS011;9574;47.282;9.640;2022-09-12T02:32:43;1.27;;;0.80;;
18883;SDS011;9574;47.282;9.640;2022-09-12T02:35:20;0.60;;;0.60;;
18883;SDS011;9574;47.282;9.640;2022-09-12T02:37:56;0.77;;;0.77;;
18883;SDS011;9574;47.282;9.640;2022-09-12T02:40:27;1.13;;;0.70;;
18883;SDS011;9574;47.282;9.640;2022-09-12T02:42:55;1.27;;;0.60;;
18883;SDS011;9574;47.282;9.640;2022-09-12T02:45:23;0.70;;;0.70;;
18883;SDS011;9574;47.282;9.640;2022-09-12T02:47:52;1.37;;;0.97;;
18883;SDS011;9574;47.282;9.640;2022-09-12T02:50:23;0.60;;;0.60;;
18883;SDS011;9574;47.282;9.640;2022-09-12T02:52:50;3.60;;;0.90;;
18883;SDS011;9574;47.282;9.640;2022-09-12T02:55:19;0.80;;;0.70;;
18883;SDS011;9574;47.282;9.640;2022-09-12T02:57:48;1.07;;;0.70;;
18883;SDS011;9574;47.282;9.640;2022-09-12T03:00:15;1.27;;;0.70;;
18883;SDS011;9574;47.282;9.640;2022-09-12T03:02:46;2.90;;;0.90;;
18883;SDS011;9574;47.282;9.640;2022-09-12T03:05:26;0.80;;;0.80;;
18883;SDS011;9574;47.282;9.640;2022-09-12T03:10:41;0.97;;;0.80;;
18883;SDS011;9574;47.282;9.640;2022-09-12T03:13:22;5.20;;;0.87;;
18883;SDS011;9574;47.282;9.640;2022-09-12T03:15:56;0.70;;;0.70;;
18883;SDS011;9574;47.282;9.640;2022-09-12T03:18:41;0.80;;;0.80;;
18883;SDS011;9574;47.282;9.640;2022-09-12T03:21:17;7.80;;;0.80;;
18883;SDS011;9574;47.282;9.640;2022-09-12T03:23:54;0.77;;;0.77;;
18883;SDS011;9574;47.282;9.640;2022-09-12T03:26:29;0.80;;;0.80;;
18883;SDS011;9574;47.282;9.640;2022-09-12T03:29:00;0.70;;;0.70;;
18883;SDS011;9574;47.282;9.640;2022-09-12T03:31:30;3.40;;;0.90;;
18883;SDS011;9574;47.282;9.640;2022-09-12T03:33:59;0.80;;;0.80;;
18883;SDS011;9574;47.282;9.640;2022-09-12T03:36:27;0.63;;;0.63;;
18883;SDS011;9574;47.282;9.640;2022-09-12T03:38:55;0.67;;;0.67;;
18883;SDS011;9574;47.282;9.640;2022-09-12T03:41:22;0.70;;;0.70;;
18883;SDS011;9574;47.282;9.640;2022-09-12T03:43:49;0.70;;;0.70;;
18883;SDS011;9574;47.282;9.640;2022-09-12T03:46:16;0.50;;;0.50;;
18883;SDS011;9574;47.282;9.640;2022-09-12T03:48:43;1.00;;;0.80;;
18883;SDS011;9574;47.282;9.640;2022-09-12T03:51:11;1.90;;;0.70;;
18883;SDS011;9574;47.282;9.640;2022-09-12T03:53:38;1.37;;;0.90;;
18883;SDS011;9574;47.282;9.640;2022-09-12T03:56:05;1.80;;;1.10;;
18883;SDS011;9574;47.282;9.640;2022-09-12T03:58:33;0.70;;;0.70;;
18883;SDS011;9574;47.282;9.640;2022-09-12T04:01:05;1.00;;;0.80;;
18883;SDS011;9574;47.282;9.640;2022-09-12T04:03:36;1.30;;;1.20;;
18883;SDS011;9574;47.282;9.640;2022-09-12T04:06:04;0.80;;;0.80;;
18883;SDS011;9574;47.282;9.640;2022-09-12T04:08:33;1.07;;;0.90;;
18883;SDS011;9574;47.282;9.640;2022-09-12T04:11:03;1.30;;;0.70;;
18883;SDS011;9574;47.282;9.640;2022-09-12T04:13:31;0.70;;;0.70;;
18883;SDS011;9574;47.282;9.640;2022-09-12T04:15:58;0.70;;;0.70;;
18883;SDS011;9574;47.282;9.640;2022-09-12T04:18:26;1.03;;;0.80;;
18883;SDS011;9574;47.282;9.640;2022-09-12T04:20:53;1.80;;;0.70;;
18883;SDS011;9574;47.282;9.640;2022-09-12T04:23:20;0.70;;;0.70;;
18883;SDS011;9574;47.282;9.640;2022-09-12T04:25:55;0.73;;;0.70;;
18883;SDS011;9574;47.282;9.640;2022-09-12T04:28:22;0.90;;;0.90;;
18883;SDS011;9574;47.282;9.640;2022-09-12T04:30:50;1.57;;;1.03;;
18883;SDS011;9574;47.282;9.640;2022-09-12T04:33:17;0.77;;;0.77;;
18883;SDS011;9574;47.282;9.640;2022-09-12T04:35:44;0.70;;;0.70;;
18883;SDS011;9574;47.282;9.640;2022-09-12T04:38:11;0.70;;;0.70;;
18883;SDS011;9574;47.282;9.640;2022-09-12T04:40:39;0.83;;;0.83;;
18883;SDS011;9574;47.282;9.640;2022-09-12T04:43:07;2.73;;;0.73;;
18883;SDS011;9574;47.282;9.640;2022-09-12T04:45:34;0.80;;;0.80;;
18883;SDS011;9574;47.282;9.640;2022-09-12T04:48:01;0.97;;;0.93;;
18883;SDS011;9574;47.282;9.640;2022-09-12T04:50:28;1.00;;;0.90;;
18883;SDS011;9574;47.282;9.640;2022-09-12T04:52:55;0.90;;;0.80;;
18883;SDS011;9574;47.282;9.640;2022-09-12T04:55:22;0.70;;;0.70;;
18883;SDS011;9574;47.282;9.640;2022-09-12T04:57:50;2.50;;;1.00;;
18883;SDS011;9574;47.282;9.640;2022-09-12T05:00:19;1.23;;;1.13;;
18883;SDS011;9574;47.282;9.640;2022-09-12T05:02:46;0.70;;;0.70;;
18883;SDS011;9574;47.282;9.640;2022-09-12T05:05:13;3.80;;;0.73;;
18883;SDS011;9574;47.282;9.640;2022-09-12T05:07:41;0.80;;;0.80;;
18883;SDS011;9574;47.282;9.640;2022-09-12T05:10:08;0.77;;;0.77;;
18883;SDS011;9574;47.282;9.640;2022-09-12T05:12:36;3.03;;;0.70;;
18883;SDS011;9574;47.282;9.640;2022-09-12T05:15:04;1.00;;;0.70;;
18883;SDS011;9574;47.282;9.640;2022-09-12T05:17:33;0.80;;;0.80;;
18883;SDS011;9574;47.282;9.640;2022-09-12T05:20:00;0.80;;;0.80;;
18883;SDS011;9574;47.282;9.640;2022-09-12T05:22:28;0.73;;;0.63;;
18883;SDS011;9574;47.282;9.640;2022-09-12T05:24:55;1.57;;;0.93;;
18883;SDS011;9574;47.282;9.640;2022-09-12T05:27:22;1.23;;;0.90;;
18883;SDS011;9574;47.282;9.640;2022-09-12T05:29:48;1.60;;;1.10;;
18883;SDS011;9574;47.282;9.640;2022-09-12T05:32:16;2.03;;;0.80;;
18883;SDS011;9574;47.282;9.640;2022-09-12T05:34:44;0.80;;;0.80;;
18883;SDS011;9574;47.282;9.640;2022-09-12T05:37:11;3.90;;;0.63;;
18883;SDS011;9574;47.282;9.640;2022-09-12T05:39:38;0.90;;;0.90;;
18883;SDS011;9574;47.282;9.640;2022-09-12T05:42:05;2.93;;;0.97;;
18883;SDS011;9574;47.282;9.640;2022-09-12T05:44:33;2.43;;;1.03;;
18883;SDS011;9574;47.282;9.640;2022-09-12T05:47:00;1.10;;;1.10;;
18883;SDS011;9574;47.282;9.640;2022-09-12T05:49:27;1.07;;;1.03;;
18883;SDS011;9574;47.282;9.640;2022-09-12T05:51:55;1.13;;;0.93;;
18883;SDS011;9574;47.282;9.640;2022-09-12T05:54:22;2.10;;;0.90;;
18883;SDS011;9574;47.282;9.640;2022-09-12T05:56:49;1.07;;;0.80;;
18883;SDS011;9574;47.282;9.640;2022-09-12T05:59:17;0.70;;;0.70;;
18883;SDS011;9574;47.282;9.640;2022-09-12T06:01:45;1.67;;;0.80;;
18883;SDS011;9574;47.282;9.640;2022-09-12T06:04:12;0.70;;;0.70;;
18883;SDS011;9574;47.282;9.640;2022-09-12T06:06:40;2.20;;;0.90;;
18883;SDS011;9574;47.282;9.640;2022-09-12T06:09:10;3.80;;;0.70;;
18883;SDS011;9574;47.282;9.640;2022-09-12T06:11:38;3.07;;;0.73;;
18883;SDS011;9574;47.282;9.640;2022-09-12T06:14:06;0.70;;;0.70;;
18883;SDS011;9574;47.282;9.640;2022-09-12T06:16:33;2.93;;;0.80;;
18883;SDS011;9574;47.282;9.640;2022-09-12T06:19:03;2.80;;;0.83;;
18883;SDS011;9574;47.282;9.640;2022-09-12T06:21:31;1.03;;;0.73;;
18883;SDS011;9574;47.282;9.640;2022-09-12T06:23:59;1.17;;;0.90;;
18883;SDS011;9574;47.282;9.640;2022-09-12T06:26:28;1.97;;;0.90;;
18883;SDS011;9574;47.282;9.640;2022-09-12T06:28:56;3.33;;;0.90;;
18883;SDS011;9574;47.282;9.640;2022-09-12T06:31:25;0.60;;;0.60;;
18883;SDS011;9574;47.282;9.640;2022-09-12T06:33:54;0.60;;;0.60;;
18883;SDS011;9574;47.282;9.640;2022-09-12T06:36:23;0.60;;;0.60;;
18883;SDS011;9574;47.282;9.640;2022-09-12T06:38:54;0.73;;;0.73;;
18883;SDS011;9574;47.282;9.640;2022-09-12T06:41:23;0.60;;;0.60;;
18883;SDS011;9574;47.282;9.640;2022-09-12T06:43:52;0.60;;;0.60;;
18883;SDS011;9574;47.282;9.640;2022-09-12T06:46:19;1.57;;;0.60;;
18883;SDS011;9574;47.282;9.640;2022-09-12T06:48:47;1.90;;;0.60;;
18883;SDS011;9574;47.282;9.640;2022-09-12T06:51:14;3.53;;;0.60;;
18883;SDS011;9574;47.282;9.640;2022-09-12T06:53:44;0.70;;;0.70;;
18883;SDS011;9574;47.282;9.640;2022-09-12T06:56:13;0.70;;;0.60;;
18883;SDS011;9574;47.282;9.640;2022-09-12T06:58:43;0.70;;;0.70;;
18883;SDS011;9574;47.282;9.640;2022-09-12T07:01:13;0.47;;;0.47;;
18883;SDS011;9574;47.282;9.640;2022-09-12T07:03:42;0.60;;;0.60;;
18883;SDS011;9574;47.282;9.640;2022-09-12T07:06:12;1.30;;;0.80;;
18883;SDS011;9574;47.282;9.640;2022-09-12T07:08:41;1.90;;;0.70;;
18883;SDS011;9574;47.282;9.640;2022-09-12T07:11:10;0.70;;;0.70;;
18883;SDS011;9574;47.282;9.640;2022-09-12T07:13:39;1.40;;;1.27;;
18883;SDS011;9574;47.282;9.640;2022-09-12T07:16:08;1.30;;;0.70;;
18883;SDS011;9574;47.282;9.640;2022-09-12T07:18:37;0.80;;;0.80;;
18883;SDS011;9574;47.282;9.640;2022-09-12T07:21:05;0.70;;;0.60;;
18883;SDS011;9574;47.282;9.640;2022-09-12T07:23:34;1.27;;;0.57;;
18883;SDS011;9574;47.282;9.640;2022-09-12T07:26:02;0.60;;;0.60;;
18883;SDS011;9574;47.282;9.640;2022-09-12T07:28:30;0.70;;;0.70;;
18883;SDS011;9574;47.282;9.640;2022-09-12T07:31:03;0.60;;;0.60;;
18883;SDS011;9574;47.282;9.640;2022-09-12T07:33:33;0.70;;;0.70;;
18883;SDS011;9574;47.282;9.640;2022-09-12T07:36:02;0.60;;;0.60;;
18883;SDS011;9574;47.282;9.640;2022-09-12T07:38:30;0.70;;;0.70;;
18883;SDS011;9574;47.282;9.640;2022-09-12T07:40:58;3.55;;;0.70;;
18883;SDS011;9574;47.282;9.640;2022-09-12T07:43:25;0.50;;;0.50;;
18883;SDS011;9574;47.282;9.640;2022-09-12T07:45:56;0.50;;;0.50;;
18883;SDS011;9574;47.282;9.640;2022-09-12T07:48:23;0.70;;;0.60;;
18883;SDS011;9574;47.282;9.640;2022-09-12T07:50:56;0.80;;;0.53;;
18883;SDS011;9574;47.282;9.640;2022-09-12T07:53:25;0.50;;;0.50;;
18883;SDS011;9574;47.282;9.640;2022-09-12T07:55:55;1.30;;;0.77;;
18883;SDS011;9574;47.282;9.640;2022-09-12T07:58:23;1.87;;;0.80;;
18883;SDS011;9574;47.282;9.640;2022-09-12T08:00:50;0.55;;;0.55;;
18883;SDS011;9574;47.282;9.640;2022-09-12T08:03:17;1.15;;;1.05;;
18883;SDS011;9574;47.282;9.640;2022-09-12T08:05:44;0.75;;;0.70;;
18883;SDS011;9574;47.282;9.640;2022-09-12T08:08:11;0.50;;;0.50;;
18883;SDS011;9574;47.282;9.640;2022-09-12T08:10:39;1.80;;;0.65;;
18883;SDS011;9574;47.282;9.640;2022-09-12T08:13:07;1.67;;;0.80;;
18883;SDS011;9574;47.282;9.640;2022-09-12T08:15:33;0.43;;;0.43;;
18883;SDS011;9574;47.282;9.640;2022-09-12T08:18:01;0.55;;;0.55;;
18883;SDS011;9574;47.282;9.640;2022-09-12T08:20:28;2.15;;;0.73;;
18883;SDS011;9574;47.282;9.640;2022-09-12T08:22:55;2.33;;;0.55;;
18883;SDS011;9574;47.282;9.640;2022-09-12T08:25:22;0.63;;;0.50;;
18883;SDS011;9574;47.282;9.640;2022-09-12T08:27:51;0.60;;;0.60;;
18883;SDS011;9574;47.282;9.640;2022-09-12T08:30:19;0.60;;;0.50;;
18883;SDS011;9574;47.282;9.640;2022-09-12T08:32:46;0.40;;;0.40;;
18883;SDS011;9574;47.282;9.640;2022-09-12T08:35:13;0.38;;;0.38;;
18883;SDS011;9574;47.282;9.640;2022-09-12T08:37:40;0.70;;;0.70;;
18883;SDS011;9574;47.282;9.640;2022-09-12T08:40:08;1.05;;;0.50;;
18883;SDS011;9574;47.282;9.640;2022-09-12T08:42:46;0.75;;;0.70;;
18883;SDS011;9574;47.282;9.640;2022-09-12T08:45:25;0.68;;;0.50;;
18883;SDS011;9574;47.282;9.640;2022-09-12T08:47:58;2.67;;;0.50;;
18883;SDS011;9574;47.282;9.640;2022-09-12T08:50:28;0.35;;;0.35;;
18883;SDS011;9574;47.282;9.640;2022-09-12T08:52:59;1.00;;;0.50;;
18883;SDS011;9574;47.282;9.640;2022-09-12T08:55:33;0.43;;;0.43;;
18883;SDS011;9574;47.282;9.640;2022-09-12T08:58:06;0.50;;;0.50;;
18883;SDS011;9574;47.282;9.640;2022-09-12T09:00:39;0.55;;;0.50;;
18883;SDS011;9574;47.282;9.640;2022-09-12T09:06:11;0.82;;;0.57;;
18883;SDS011;9574;47.282;9.640;2022-09-12T09:08:48;2.88;;;0.60;;
18883;SDS011;9574;47.282;9.640;2022-09-12T09:11:32;0.65;;;0.45;;
18883;SDS011;9574;47.282;9.640;2022-09-12T09:14:12;0.30;;;0.30;;
18883;SDS011;9574;47.282;9.640;2022-09-12T09:17:08;0.40;;;0.40;;
18883;SDS011;9574;47.282;9.640;2022-09-12T09:19:39;1.10;;;0.40;;
18883;SDS011;9574;47.282;9.640;2022-09-12T09:22:13;0.60;;;0.60;;
18883;SDS011;9574;47.282;9.640;2022-09-12T09:24:44;0.73;;;0.43;;
18883;SDS011;9574;47.282;9.640;2022-09-12T09:27:19;0.60;;;0.55;;
18883;SDS011;9574;47.282;9.640;2022-09-12T09:29:54;0.60;;;0.60;;
18883;SDS011;9574;47.282;9.640;2022-09-12T09:32:24;1.55;;;0.88;;
18883;SDS011;9574;47.282;9.640;2022-09-12T09:34:52;0.85;;;0.80;;
18883;SDS011;9574;47.282;9.640;2022-09-12T09:37:24;0.50;;;0.50;;
18883;SDS011;9574;47.282;9.640;2022-09-12T09:40:00;1.90;;;0.38;;
18883;SDS011;9574;47.282;9.640;2022-09-12T09:42:36;0.50;;;0.50;;
18883;SDS011;9574;47.282;9.640;2022-09-12T09:45:14;0.52;;;0.50;;
18883;SDS011;9574;47.282;9.640;2022-09-12T09:47:44;0.50;;;0.50;;
18883;SDS011;9574;47.282;9.640;2022-09-12T09:50:13;0.77;;;0.50;;
18883;SDS011;9574;47.282;9.640;2022-09-12T09:52:42;1.90;;;0.65;;
18883;SDS011;9574;47.282;9.640;2022-09-12T09:55:11;0.95;;;0.43;;
18883;SDS011;9574;47.282;9.640;2022-09-12T09:57:43;0.30;;;0.30;;
18883;SDS011;9574;47.282;9.640;2022-09-12T10:00:31;0.40;;;0.30;;
18883;SDS011;9574;47.282;9.640;2022-09-12T10:03:00;0.57;;;0.40;;
18883;SDS011;9574;47.282;9.640;2022-09-12T10:05:47;0.82;;;0.40;;
18883;SDS011;9574;47.282;9.640;2022-09-12T10:08:18;0.50;;;0.43;;
18883;SDS011;9574;47.282;9.640;2022-09-12T10:10:54;1.52;;;0.40;;
18883;SDS011;9574;47.282;9.640;2022-09-12T10:13:23;0.45;;;0.45;;
18883;SDS011;9574;47.282;9.640;2022-09-12T10:16:00;1.23;;;0.43;;
18883;SDS011;9574;47.282;9.640;2022-09-12T10:18:31;0.30;;;0.30;;
18883;SDS011;9574;47.282;9.640;2022-09-12T10:21:11;0.63;;;0.52;;
18883;SDS011;9574;47.282;9.640;2022-09-12T10:23:46;2.38;;;0.40;;
18883;SDS011;9574;47.282;9.640;2022-09-12T10:26:16;0.60;;;0.50;;
18883;SDS011;9574;47.282;9.640;2022-09-12T10:28:46;0.22;;;0.22;;
18883;SDS011;9574;47.282;9.640;2022-09-12T10:31:23;0.35;;;0.30;;
18883;SDS011;9574;47.282;9.640;2022-09-12T10:33:53;0.77;;;0.50;;
18883;SDS011;9574;47.282;9.640;2022-09-12T10:36:22;0.63;;;0.45;;
18883;SDS011;9574;47.282;9.640;2022-09-12T10:38:50;0.40;;;0.40;;
18883;SDS011;9574;47.282;9.640;2022-09-12T10:41:19;0.40;;;0.40;;
18883;SDS011;9574;47.282;9.640;2022-09-12T10:43:47;0.82;;;0.40;;
18883;SDS011;9574;47.282;9.640;2022-09-12T10:46:28;0.73;;;0.40;;
18883;SDS011;9574;47.282;9.640;2022-09-12T10:51:48;0.32;;;0.32;;
18883;SDS011;9574;47.282;9.640;2022-09-12T10:54:17;0.63;;;0.60;;
18883;SDS011;9574;47.282;9.640;2022-09-12T10:56:55;1.50;;;0.32;;
18883;SDS011;9574;47.282;9.640;2022-09-12T10:59:42;0.40;;;0.40;;
18883;SDS011;9574;47.282;9.640;2022-09-12T11:02:32;0.63;;;0.32;;
18883;SDS011;9574;47.282;9.640;2022-09-12T11:05:12;0.50;;;0.47;;
18883;SDS011;9574;47.282;9.640;2022-09-12T11:07:46;0.50;;;0.50;;
18883;SDS011;9574;47.282;9.640;2022-09-12T11:10:27;0.60;;;0.40;;
18883;SDS011;9574;47.282;9.640;2022-09-12T11:13:04;0.43;;;0.40;;
18883;SDS011;9574;47.282;9.640;2022-09-12T11:15:45;1.08;;;0.40;;
18883;SDS011;9574;47.282;9.640;2022-09-12T11:18:28;0.60;;;0.50;;
18883;SDS011;9574;47.282;9.640;2022-09-12T11:21:24;0.40;;;0.40;;
18883;SDS011;9574;47.282;9.640;2022-09-12T11:24:13;1.52;;;0.40;;
18883;SDS011;9574;47.282;9.640;2022-09-12T11:27:11;0.60;;;0.40;;
18883;SDS011;9574;47.282;9.640;2022-09-12T11:29:58;1.10;;;0.57;;
18883;SDS011;9574;47.282;9.640;2022-09-12T11:32:35;0.40;;;0.40;;
18883;SDS011;9574;47.282;9.640;2022-09-12T11:35:31;1.48;;;0.43;;
18883;SDS011;9574;47.282;9.640;2022-09-12T11:40:52;0.32;;;0.30;;
18883;SDS011;9574;47.282;9.640;2022-09-12T11:43:22;0.40;;;0.40;;
18883;SDS011;9574;47.282;9.640;2022-09-12T11:46:00;0.43;;;0.40;;
18883;SDS011;9574;47.282;9.640;2022-09-12T11:48:37;0.57;;;0.57;;
18883;SDS011;9574;47.282;9.640;2022-09-12T11:51:14;0.68;;;0.47;;
18883;SDS011;9574;47.282;9.640;2022-09-12T11:53:56;1.02;;;0.50;;
18883;SDS011;9574;47.282;9.640;2022-09-12T11:56:30;0.50;;;0.50;;
18883;SDS011;9574;47.282;9.640;2022-09-12T11:58:59;0.50;;;0.50;;
18883;SDS011;9574;47.282;9.640;2022-09-12T12:01:37;2.55;;;1.00;;
18883;SDS011;9574;47.282;9.640;2022-09-12T12:04:07;1.75;;;0.65;;
18883;SDS011;9574;47.282;9.640;2022-09-12T12:06:43;2.28;;;0.55;;
18883;SDS011;9574;47.282;9.640;2022-09-12T12:09:14;0.32;;;0.32;;
18883;SDS011;9574;47.282;9.640;2022-09-12T12:11:42;0.82;;;0.60;;
18883;SDS011;9574;47.282;9.640;2022-09-12T12:14:15;0.80;;;0.50;;
18883;SDS011;9574;47.282;9.640;2022-09-12T12:16:44;0.73;;;0.40;;
18883;SDS011;9574;47.282;9.640;2022-09-12T12:19:26;0.95;;;0.60;;
18883;SDS011;9574;47.282;9.640;2022-09-12T12:22:07;0.57;;;0.57;;
18883;SDS011;9574;47.282;9.640;2022-09-12T12:24:54;1.25;;;0.60;;
18883;SDS011;9574;47.282;9.640;2022-09-12T12:27:44;0.70;;;0.60;;
18883;SDS011;9574;47.282;9.640;2022-09-12T12:36:34;0.70;;;0.45;;
18883;SDS011;9574;47.282;9.640;2022-09-12T12:48:45;0.90;;;0.90;;
18883;SDS011;9574;47.282;9.640;2022-09-12T12:51:33;0.65;;;0.65;;
18883;SDS011;9574;47.282;9.640;2022-09-12T12:54:25;3.63;;;1.35;;
18883;SDS011;9574;47.282;9.640;2022-09-12T12:57:05;1.15;;;0.90;;
18883;SDS011;9574;47.282;9.640;2022-09-12T12:59:47;1.05;;;0.80;;
18883;SDS011;9574;47.282;9.640;2022-09-12T13:02:18;1.00;;;0.90;;
18883;SDS011;9574;47.282;9.640;2022-09-12T13:04:51;4.18;;;1.38;;
18883;SDS011;9574;47.282;9.640;2022-09-12T13:07:24;2.33;;;0.80;;
18883;SDS011;9574;47.282;9.640;2022-09-12T13:09:55;1.63;;;1.10;;
18883;SDS011;9574;47.282;9.640;2022-09-12T13:12:27;1.65;;;1.30;;
18883;SDS011;9574;47.282;9.640;2022-09-12T13:14:57;2.08;;;1.15;;
18883;SDS011;9574;47.282;9.640;2022-09-12T13:17:27;1.08;;;0.95;;
18883;SDS011;9574;47.282;9.640;2022-09-12T13:20:13;1.73;;;0.90;;
18883;SDS011;9574;47.282;9.640;2022-09-12T13:22:50;2.70;;;1.02;;
18883;SDS011;9574;47.282;9.640;2022-09-12T13:25:18;0.70;;;0.70;;
18883;SDS011;9574;47.282;9.640;2022-09-12T13:27:58;1.55;;;1.13;;
18883;SDS011;9574;47.282;9.640;2022-09-12T13:30:26;1.05;;;0.90;;
